Time;durP1;ratioP1;P1;durP2;ratioP2;P2;SDS_P1;SDS_P2;PMS_P1;PMS_P2;Temp;Humidity;BMP_temperature;BMP_pressure;BME280_temperature;BME280_humidity;BME280_pressure;Samples;Min_cycle;Max_cycle;Signal;HPM_P1;HPM_P2
2022/09/01 00:00:28;;;;;;;0.50;0.50;;;13.50;99.90;;;;;;5081636;28;20046;-80
2022/09/01 00:02:55;;;;;;;0.50;0.50;;;13.50;99.90;;;;;;5062286;28;20127;-80
2022/09/01 00:05:21;;;;;;;0.50;0.50;;;13.60;99.90;;;;;;5061405;28;20052;-80
2022/09/01 00:07:48;;;;;;;0.40;0.40;;;13.40;99.90;;;;;;5063904;28;20958;-80
2022/09/01 00:10:15;;;;;;;0.40;0.40;;;13.50;99.90;;;;;;5033121;28;20447;-80
2022/09/01 00:12:40;;;;;;;0.40;0.40;;;13.50;99.90;;;;;;5061983;28;20249;-80
2022/09/01 00:15:09;;;;;;;0.50;0.50;;;13.50;99.90;;;;;;5061979;28;20195;-80
2022/09/01 00:17:35;;;;;;;0.40;0.40;;;13.50;99.90;;;;;;5063630;28;20043;-79
2022/09/01 00:20:01;;;;;;;0.50;0.50;;;13.50;99.90;;;;;;5082119;28;20100;-80
2022/09/01 00:22:28;;;;;;;0.40;0.40;;;13.50;99.90;;;;;;5063800;28;20071;-80
2022/09/01 00:24:54;;;;;;;0.50;0.50;;;13.40;99.90;;;;;;5073351;28;20039;-79
2022/09/01 00:27:19;;;;;;;0.50;0.50;;;13.40;99.90;;;;;;5068014;28;20043;-79
2022/09/01 00:29:45;;;;;;;0.50;0.50;;;13.40;99.90;;;;;;5065475;28;20058;-79
2022/09/01 00:32:11;;;;;;;0.50;0.50;;;13.40;99.90;;;;;;5066239;28;20105;-80
2022/09/01 00:34:37;;;;;;;0.50;0.50;;;13.40;99.90;;;;;;5064685;28;20054;-80
2022/09/01 00:37:03;;;;;;;0.50;0.50;;;13.30;99.90;;;;;;5083368;28;20051;-79
2022/09/01 00:39:29;;;;;;;0.50;0.50;;;13.30;99.90;;;;;;5079750;28;20051;-79
2022/09/01 00:41:55;;;;;;;0.50;0.50;;;13.30;99.90;;;;;;5064146;28;20094;-79
2022/09/01 00:44:22;;;;;;;0.50;0.50;;;13.30;99.90;;;;;;5059567;28;20125;-80
2022/09/01 00:46:50;;;;;;;0.50;0.50;;;13.30;99.90;;;;;;5049377;28;20742;-80
2022/09/01 00:49:37;;;;;;;0.50;0.50;;;13.20;99.90;;;;;;5069493;28;20066;-80
2022/09/01 00:52:07;;;;;;;0.50;0.50;;;13.20;99.90;;;;;;5066973;28;20052;-80
2022/09/01 00:54:38;;;;;;;0.40;0.40;;;13.20;99.90;;;;;;5065957;28;20077;-80
2022/09/01 00:57:05;;;;;;;0.50;0.50;;;13.20;99.90;;;;;;5050062;28;20140;-80
2022/09/01 00:59:31;;;;;;;0.50;0.50;;;13.20;99.90;;;;;;5049623;28;20073;-79
2022/09/01 01:01:57;;;;;;;0.50;0.50;;;13.20;99.90;;;;;;5067265;28;20047;-79
2022/09/01 01:04:23;;;;;;;0.40;0.40;;;13.10;99.90;;;;;;5069394;28;20163;-79
2022/09/01 01:06:57;;;;;;;0.60;0.60;;;13.20;99.90;;;;;;5068496;28;20778;-80
2022/09/01 01:09:24;;;;;;;0.50;0.50;;;13.10;99.90;;;;;;5065392;28;20055;-79
2022/09/01 01:11:52;;;;;;;0.50;0.50;;;13.10;99.90;;;;;;5069649;28;20058;-80
2022/09/01 01:14:18;;;;;;;0.45;0.45;;;13.00;99.90;;;;;;5034149;28;20051;-80
2022/09/01 01:16:49;;;;;;;0.40;0.40;;;13.00;99.90;;;;;;5064632;28;20044;-80
2022/09/01 01:23:04;;;;;;;0.50;0.50;;;12.80;99.90;;;;;;5069232;28;20504;-79
2022/09/01 01:25:43;;;;;;;0.50;0.50;;;12.80;99.90;;;;;;5068542;28;20040;-80
2022/09/01 01:28:20;;;;;;;0.50;0.50;;;12.80;99.90;;;;;;5068411;28;20074;-80
2022/09/01 01:30:53;;;;;;;0.43;0.43;;;12.80;99.90;;;;;;5066358;28;20055;-79
2022/09/01 01:33:22;;;;;;;0.50;0.50;;;12.80;99.90;;;;;;5068728;28;20047;-79
2022/09/01 01:35:50;;;;;;;0.50;0.50;;;12.80;99.90;;;;;;5067899;28;20059;-79
2022/09/01 01:38:18;;;;;;;0.40;0.40;;;12.80;99.90;;;;;;5068676;28;20610;-79
2022/09/01 01:40:44;;;;;;;0.50;0.50;;;12.80;99.90;;;;;;5065064;28;20051;-79
2022/09/01 01:43:11;;;;;;;0.45;0.45;;;12.80;99.90;;;;;;5066170;28;20377;-79
2022/09/01 01:45:36;;;;;;;0.50;0.50;;;12.70;99.90;;;;;;5083292;28;20698;-79
2022/09/01 01:48:04;;;;;;;0.50;0.50;;;12.60;99.90;;;;;;5067016;28;20048;-79
2022/09/01 01:50:33;;;;;;;0.50;0.50;;;12.70;99.90;;;;;;5068500;28;20127;-80
2022/09/01 01:53:01;;;;;;;0.45;0.45;;;12.60;99.90;;;;;;5086283;28;20078;-80
2022/09/01 01:55:29;;;;;;;0.50;0.50;;;12.60;99.90;;;;;;5065399;28;20044;-80
2022/09/01 01:57:56;;;;;;;0.50;0.50;;;12.60;99.90;;;;;;5063467;28;20078;-80
2022/09/01 02:00:27;;;;;;;0.40;0.40;;;12.60;99.90;;;;;;5065027;28;20543;-80
2022/09/01 02:02:53;;;;;;;0.50;0.50;;;12.60;99.90;;;;;;5066544;28;20093;-80
2022/09/01 02:05:27;;;;;;;0.50;0.50;;;12.50;99.90;;;;;;5070121;28;20086;-80
2022/09/01 02:08:00;;;;;;;0.47;0.47;;;12.50;99.90;;;;;;5066750;28;20504;-80
2022/09/01 02:10:30;;;;;;;0.50;0.50;;;12.50;99.90;;;;;;5066514;28;20040;-79
2022/09/01 02:13:02;;;;;;;0.50;0.50;;;12.40;99.90;;;;;;5067451;28;20189;-80
2022/09/01 02:15:28;;;;;;;0.45;0.45;;;12.40;99.90;;;;;;5083857;28;20040;-80
2022/09/01 02:17:58;;;;;;;0.50;0.50;;;12.40;99.90;;;;;;5067001;28;20070;-80
2022/09/01 02:20:28;;;;;;;0.40;0.40;;;12.40;99.90;;;;;;5065800;28;20386;-80
2022/09/01 02:22:56;;;;;;;0.40;0.40;;;12.40;99.90;;;;;;5060201;28;20686;-79
2022/09/01 02:25:22;;;;;;;0.40;0.40;;;12.30;99.90;;;;;;5065238;28;20043;-80
2022/09/01 02:27:52;;;;;;;0.50;0.50;;;12.30;99.90;;;;;;5083189;28;20703;-80
2022/09/01 02:30:18;;;;;;;0.50;0.50;;;12.30;99.90;;;;;;5068363;28;20059;-80
2022/09/01 02:32:44;;;;;;;0.50;0.50;;;12.20;99.90;;;;;;5068282;28;20536;-80
2022/09/01 02:35:10;;;;;;;0.50;0.50;;;12.20;99.90;;;;;;5069390;28;20058;-80
2022/09/01 02:37:38;;;;;;;0.50;0.50;;;12.20;99.90;;;;;;5082908;28;20062;-80
2022/09/01 02:40:09;;;;;;;0.50;0.50;;;12.10;99.90;;;;;;5066871;28;20111;-80
2022/09/01 02:42:39;;;;;;;0.50;0.50;;;12.10;99.90;;;;;;5084041;28;20130;-79
2022/09/01 02:45:14;;;;;;;0.50;0.50;;;12.10;99.90;;;;;;5069520;28;20489;-79
2022/09/01 02:47:44;;;;;;;0.50;0.50;;;12.10;99.90;;;;;;5066999;28;20055;-80
2022/09/01 02:50:15;;;;;;;0.50;0.50;;;12.10;99.90;;;;;;5067950;28;20423;-80
2022/09/01 02:52:42;;;;;;;0.40;0.40;;;12.10;99.90;;;;;;5050285;28;20051;-79
2022/09/01 02:55:08;;;;;;;0.50;0.50;;;12.00;99.90;;;;;;5065659;28;20121;-79
2022/09/01 02:57:34;;;;;;;0.40;0.40;;;11.90;99.90;;;;;;5065060;28;20794;-79
2022/09/01 03:00:02;;;;;;;0.50;0.50;;;12.00;99.90;;;;;;5066373;28;20089;-80
2022/09/01 03:02:28;;;;;;;0.50;0.50;;;11.90;99.90;;;;;;5066725;28;20047;-80
2022/09/01 03:04:56;;;;;;;0.50;0.50;;;11.90;99.90;;;;;;5050827;28;20047;-79
2022/09/01 03:07:24;;;;;;;0.50;0.50;;;11.90;99.90;;;;;;5069074;28;20093;-79
2022/09/01 03:09:51;;;;;;;0.45;0.45;;;11.80;99.90;;;;;;5056850;28;20075;-79
2022/09/01 03:12:18;;;;;;;0.50;0.50;;;11.80;99.90;;;;;;5057449;28;20516;-79
2022/09/01 03:14:44;;;;;;;0.40;0.40;;;11.80;99.90;;;;;;5065928;28;20517;-80
2022/09/01 03:17:10;;;;;;;0.50;0.50;;;11.80;99.90;;;;;;5065766;28;20078;-79
2022/09/01 03:19:40;;;;;;;0.50;0.50;;;11.80;99.90;;;;;;5064609;28;20112;-80
2022/09/01 03:22:06;;;;;;;0.40;0.40;;;11.80;99.90;;;;;;5064103;28;20119;-79
2022/09/01 03:24:32;;;;;;;0.50;0.50;;;11.80;99.90;;;;;;5065491;28;20055;-79
2022/09/01 03:26:59;;;;;;;0.50;0.50;;;11.80;99.90;;;;;;5083255;28;20068;-80
2022/09/01 03:29:25;;;;;;;0.50;0.50;;;11.70;99.90;;;;;;5065979;28;20502;-80
2022/09/01 03:31:51;;;;;;;0.50;0.50;;;11.70;99.90;;;;;;5065003;28;20128;-80
2022/09/01 03:34:19;;;;;;;0.40;0.40;;;11.60;99.90;;;;;;5066689;28;20236;-79
2022/09/01 03:36:49;;;;;;;0.50;0.50;;;11.60;99.90;;;;;;5065958;28;20051;-79
2022/09/01 03:39:16;;;;;;;0.50;0.50;;;11.60;99.90;;;;;;5065174;28;20051;-80
2022/09/01 03:41:43;;;;;;;0.50;0.50;;;11.60;99.90;;;;;;5063930;28;20037;-79
2022/09/01 03:44:10;;;;;;;0.50;0.50;;;11.60;99.90;;;;;;5066796;28;20039;-79
2022/09/01 03:46:39;;;;;;;0.47;0.47;;;11.50;99.90;;;;;;5066065;28;20135;-79
2022/09/01 03:49:11;;;;;;;0.50;0.50;;;11.50;99.90;;;;;;5065461;28;20055;-80
2022/09/01 03:51:37;;;;;;;0.50;0.50;;;11.50;99.90;;;;;;5084671;28;20554;-79
2022/09/01 03:54:03;;;;;;;0.50;0.50;;;11.50;99.90;;;;;;5076387;28;20763;-79
2022/09/01 03:56:29;;;;;;;0.45;0.45;;;11.50;99.90;;;;;;5082211;28;20052;-79
2022/09/01 03:58:58;;;;;;;0.50;0.50;;;11.50;99.90;;;;;;5067645;28;20051;-79
2022/09/01 04:01:25;;;;;;;0.40;0.40;;;11.50;99.90;;;;;;5068209;28;20043;-79
2022/09/01 04:03:51;;;;;;;0.50;0.50;;;11.50;99.90;;;;;;5066863;28;20043;-80
2022/09/01 04:06:19;;;;;;;0.40;0.40;;;11.50;99.90;;;;;;5067442;28;20104;-79
2022/09/01 04:08:45;;;;;;;0.50;0.50;;;11.50;99.90;;;;;;5050841;28;20054;-79
2022/09/01 04:11:22;;;;;;;0.50;0.50;;;11.40;99.90;;;;;;5067696;28;20059;-79
2022/09/01 04:13:49;;;;;;;0.40;0.40;;;11.40;99.90;;;;;;5064899;28;20056;-79
2022/09/01 04:19:18;;;;;;;0.40;0.40;;;11.40;99.90;;;;;;5064964;28;20051;-79
2022/09/01 04:21:46;;;;;;;0.50;0.50;;;11.40;99.90;;;;;;5071182;28;20047;-79
2022/09/01 04:24:14;;;;;;;0.50;0.50;;;11.40;99.90;;;;;;5060675;28;20057;-79
2022/09/01 04:26:40;;;;;;;0.40;0.40;;;11.40;99.90;;;;;;5070526;28;20061;-80
2022/09/01 04:29:07;;;;;;;0.40;0.40;;;11.30;99.90;;;;;;5069532;28;20132;-79
2022/09/01 04:31:37;;;;;;;0.47;0.47;;;11.40;99.90;;;;;;5069681;28;20055;-79
2022/09/01 04:34:11;;;;;;;0.40;0.40;;;11.40;99.90;;;;;;5069482;28;20413;-80
2022/09/01 04:36:42;;;;;;;0.45;0.45;;;11.40;99.90;;;;;;5067882;28;20499;-79
2022/09/01 04:39:09;;;;;;;0.40;0.40;;;11.30;99.90;;;;;;5050368;28;20146;-79
2022/09/01 04:41:39;;;;;;;0.50;0.50;;;11.40;99.90;;;;;;5069563;28;20093;-79
2022/09/01 04:44:06;;;;;;;0.50;0.50;;;11.40;99.90;;;;;;5071468;28;20066;-79
2022/09/01 04:46:35;;;;;;;0.50;0.50;;;11.30;99.90;;;;;;5069773;28;20049;-80
2022/09/01 04:49:09;;;;;;;0.50;0.50;;;11.30;99.90;;;;;;5084145;28;20468;-80
2022/09/01 04:51:45;;;;;;;0.50;0.50;;;11.30;99.90;;;;;;5065874;28;20104;-80
2022/09/01 04:54:13;;;;;;;0.50;0.50;;;11.30;99.90;;;;;;5062980;28;20044;-79
2022/09/01 04:56:42;;;;;;;0.40;0.40;;;11.30;99.90;;;;;;5070218;28;20048;-80
2022/09/01 04:59:09;;;;;;;0.43;0.43;;;11.30;99.90;;;;;;5070086;28;20491;-79
2022/09/01 05:01:42;;;;;;;0.50;0.50;;;11.30;99.90;;;;;;5065852;28;20388;-80
2022/09/01 05:04:21;;;;;;;0.50;0.50;;;11.30;99.90;;;;;;5064977;28;20565;-79
2022/09/01 05:07:00;;;;;;;0.50;0.50;;;11.40;99.90;;;;;;5072575;28;20044;-79
2022/09/01 05:09:35;;;;;;;0.50;0.50;;;11.50;99.90;;;;;;5057359;28;20055;-80
2022/09/01 05:12:09;;;;;;;0.50;0.50;;;11.60;99.90;;;;;;5059527;28;20051;-79
2022/09/01 05:14:45;;;;;;;0.50;0.50;;;11.70;99.90;;;;;;5051358;28;20047;-81
2022/09/01 05:17:12;;;;;;;0.45;0.45;;;11.90;99.90;;;;;;5056542;28;20056;-81
2022/09/01 05:19:46;;;;;;;0.50;0.50;;;12.50;99.90;;;;;;5055562;28;20043;-80
2022/09/01 05:22:12;;;;;;;;;;;12.70;99.90;;;;;;5077212;28;20090;-80
2022/09/01 05:24:38;;;;;;;0.50;0.50;;;13.50;99.90;;;;;;5040020;28;20542;-79
2022/09/01 05:27:05;;;;;;;0.50;0.50;;;14.50;99.90;;;;;;5059572;28;20146;-79
2022/09/01 05:29:31;;;;;;;0.50;0.50;;;14.80;99.90;;;;;;5055530;28;20624;-79
2022/09/01 05:31:57;;;;;;;0.50;0.50;;;15.30;99.90;;;;;;5075533;28;20043;-80
2022/09/01 05:34:28;;;;;;;0.60;0.60;;;15.90;99.90;;;;;;5056289;28;20306;-80
2022/09/01 05:36:58;;;;;;;0.40;0.40;;;16.00;99.90;;;;;;5056184;28;20104;-80
2022/09/01 05:39:25;;;;;;;0.40;0.40;;;16.70;99.90;;;;;;5057283;28;20183;-79
2022/09/01 05:41:52;;;;;;;0.40;0.40;;;17.30;99.90;;;;;;5039423;28;20112;-80
2022/09/01 05:44:21;;;;;;;0.40;0.40;;;17.60;99.90;;;;;;5059782;28;20054;-79
2022/09/01 05:46:49;;;;;;;0.40;0.40;;;17.90;99.90;;;;;;5022372;28;20094;-79
2022/09/01 05:49:17;;;;;;;0.43;0.43;;;18.40;99.90;;;;;;5070772;28;20051;-81
2022/09/01 05:51:48;;;;;;;0.40;0.40;;;17.90;99.90;;;;;;5068685;28;21010;-80
2022/09/01 05:54:16;;;;;;;0.40;0.40;;;15.90;99.90;;;;;;5048933;28;20042;-79
2022/09/01 05:56:43;;;;;;;0.40;0.40;;;15.60;99.90;;;;;;5050048;28;20136;-80
2022/09/01 05:59:10;;;;;;;0.40;0.40;;;15.50;99.90;;;;;;5050122;28;20807;-80
2022/09/01 06:01:39;;;;;;;0.50;0.50;;;15.30;99.90;;;;;;5051046;28;20054;-80
2022/09/01 06:04:07;;;;;;;0.50;0.50;;;15.20;99.90;;;;;;5054223;28;20128;-81
2022/09/01 06:06:45;;;;;;;0.40;0.40;;;15.00;99.90;;;;;;5034072;28;20427;-80
2022/09/01 06:09:12;;;;;;;0.40;0.40;;;15.10;99.90;;;;;;5059433;28;20058;-80
2022/09/01 06:11:39;;;;;;;0.40;0.40;;;15.30;99.90;;;;;;5071459;28;20063;-81
2022/09/01 06:14:07;;;;;;;0.40;0.40;;;15.30;99.90;;;;;;5079732;28;20404;-81
2022/09/01 06:16:34;;;;;;;0.40;0.40;;;15.40;99.90;;;;;;5069340;28;20043;-82
2022/09/01 06:19:01;;;;;;;0.40;0.40;;;15.10;99.90;;;;;;5067411;28;20062;-81
2022/09/01 06:21:27;;;;;;;0.40;0.40;;;15.00;99.90;;;;;;5068598;28;20081;-80
2022/09/01 06:23:55;;;;;;;0.40;0.40;;;15.50;99.90;;;;;;5067613;28;20052;-80
2022/09/01 06:26:29;;;;;;;0.40;0.40;;;15.40;99.90;;;;;;5070277;28;20078;-81
2022/09/01 06:29:00;;;;;;;0.40;0.40;;;15.70;99.90;;;;;;5067309;28;21645;-81
2022/09/01 06:31:32;;;;;;;0.40;0.40;;;15.40;99.90;;;;;;5068697;28;20043;-81
2022/09/01 06:34:00;;;;;;;0.40;0.40;;;15.30;99.90;;;;;;5069936;28;20905;-80
2022/09/01 06:36:26;;;;;;;0.40;0.40;;;15.40;99.90;;;;;;5083274;28;20117;-79
2022/09/01 06:38:53;;;;;;;0.50;0.50;;;15.90;99.90;;;;;;5062512;28;20079;-80
2022/09/01 06:41:20;;;;;;;0.50;0.50;;;15.60;99.90;;;;;;5067675;28;20935;-80
2022/09/01 06:43:52;;;;;;;0.40;0.40;;;15.90;99.90;;;;;;5068188;28;20044;-80
2022/09/01 06:46:22;;;;;;;0.40;0.40;;;16.20;99.90;;;;;;5083016;28;20047;-81
2022/09/01 06:48:48;;;;;;;0.40;0.40;;;15.80;99.90;;;;;;5066337;28;20043;-80
2022/09/01 06:51:21;;;;;;;0.40;0.40;;;15.80;99.90;;;;;;5067315;28;20075;-82
2022/09/01 06:53:55;;;;;;;0.40;0.40;;;16.40;99.90;;;;;;5063900;28;20054;-80
2022/09/01 06:56:30;;;;;;;0.50;0.50;;;16.30;99.90;;;;;;5064451;28;20079;-81
2022/09/01 06:58:57;;;;;;;0.40;0.40;;;16.30;99.90;;;;;;5064897;28;20703;-80
2022/09/01 07:01:24;;;;;;;0.40;0.40;;;16.50;99.90;;;;;;5092131;28;20130;-81
2022/09/01 07:03:52;;;;;;;0.40;0.40;;;16.50;99.90;;;;;;5052815;28;20055;-81
2022/09/01 07:06:23;;;;;;;0.45;0.45;;;16.50;99.90;;;;;;5085585;28;20513;-80
2022/09/01 07:08:48;;;;;;;0.40;0.40;;;16.80;99.90;;;;;;5082918;28;20378;-81
2022/09/01 07:11:24;;;;;;;0.40;0.40;;;17.00;99.90;;;;;;5069218;28;20054;-79
2022/09/01 07:13:54;;;;;;;0.40;0.40;;;17.10;99.90;;;;;;5068713;28;20051;-81
2022/09/01 07:16:24;;;;;;;0.40;0.40;;;17.20;99.90;;;;;;5087175;28;20035;-81
2022/09/01 07:18:50;;;;;;;0.40;0.40;;;17.40;99.90;;;;;;5068527;28;20108;-80
2022/09/01 07:21:18;;;;;;;0.50;0.50;;;17.60;99.90;;;;;;5087106;28;20039;-80
2022/09/01 07:23:45;;;;;;;0.40;0.40;;;17.80;99.90;;;;;;5072807;28;20089;-80
2022/09/01 07:26:17;;;;;;;0.40;0.40;;;17.90;99.90;;;;;;5050088;28;20077;-81
2022/09/01 07:28:44;;;;;;;0.40;0.40;;;18.00;99.90;;;;;;5086432;28;20485;-80
2022/09/01 07:31:19;;;;;;;0.40;0.40;;;18.50;99.90;;;;;;5068828;28;20512;-81
2022/09/01 07:33:47;;;;;;;0.40;0.40;;;18.40;99.90;;;;;;5086286;28;20069;-81
2022/09/01 07:36:14;;;;;;;0.40;0.40;;;18.50;99.90;;;;;;5065984;28;20059;-82
2022/09/01 07:38:41;;;;;;;0.40;0.40;;;18.60;99.90;;;;;;5082602;28;20052;-81
2022/09/01 07:41:11;;;;;;;0.40;0.40;;;18.70;99.90;;;;;;5069601;28;20656;-81
2022/09/01 07:43:38;;;;;;;0.40;0.40;;;18.90;99.90;;;;;;5067896;28;20055;-80
2022/09/01 07:46:05;;;;;;;0.40;0.40;;;19.00;99.90;;;;;;5069914;28;20172;-82
2022/09/01 07:48:31;;;;;;;0.40;0.40;;;19.00;99.90;;;;;;5085267;28;20046;-78
2022/09/01 07:50:57;;;;;;;0.40;0.40;;;19.00;99.90;;;;;;5067221;28;20047;-81
2022/09/01 07:53:31;;;;;;;0.40;0.40;;;19.20;99.90;;;;;;5067299;28;20524;-82
2022/09/01 07:55:58;;;;;;;;;;;18.90;99.90;;;;;;5082195;28;20429;-81
2022/09/01 07:58:26;;;;;;;0.40;0.40;;;18.90;99.90;;;;;;5065733;28;19927;-80
2022/09/01 08:00:54;;;;;;;0.30;0.30;;;19.40;99.90;;;;;;5067592;28;20128;-79
2022/09/01 08:03:23;;;;;;;0.40;0.40;;;19.60;99.90;;;;;;5066069;28;20134;-81
2022/09/01 08:05:52;;;;;;;0.40;0.40;;;19.60;99.90;;;;;;5077322;28;20120;-81
2022/09/01 08:08:19;;;;;;;0.40;0.40;;;19.80;99.90;;;;;;5059389;28;20051;-82
2022/09/01 08:10:47;;;;;;;0.30;0.30;;;19.30;99.90;;;;;;5064921;28;20667;-82
2022/09/01 08:13:14;;;;;;;0.40;0.40;;;19.20;99.90;;;;;;5085396;28;20562;-82
2022/09/01 08:15:40;;;;;;;0.40;0.40;;;19.40;99.90;;;;;;5062289;28;20130;-83
2022/09/01 08:18:07;;;;;;;0.40;0.40;;;19.80;99.90;;;;;;5083749;28;20054;-81
2022/09/01 08:20:38;;;;;;;0.40;0.40;;;20.10;99.90;;;;;;5086537;28;20502;-79
2022/09/01 08:23:04;;;;;;;0.40;0.40;;;20.60;99.90;;;;;;5068835;28;20409;-81
2022/09/01 08:25:33;;;;;;;0.30;0.30;;;20.80;99.90;;;;;;5067479;28;20052;-82
2022/09/01 08:27:59;;;;;;;0.40;0.40;;;20.80;99.90;;;;;;5083428;28;20977;-79
2022/09/01 08:30:26;;;;;;;0.38;0.38;;;20.90;99.90;;;;;;5064119;28;20044;-80
2022/09/01 08:32:52;;;;;;;0.30;0.30;;;21.20;99.90;;;;;;5051776;28;20184;-79
2022/09/01 08:35:18;;;;;;;0.30;0.30;;;21.30;99.90;;;;;;5069488;28;20052;-81
2022/09/01 08:37:43;;;;;;;0.40;0.40;;;21.30;99.90;;;;;;5057591;28;20098;-81
2022/09/01 08:40:16;;;;;;;0.38;0.38;;;21.40;99.90;;;;;;5078031;28;20576;-84
2022/09/01 08:42:48;;;;;;;0.40;0.40;;;21.30;99.90;;;;;;5062409;28;20075;-82
2022/09/01 08:45:30;;;;;;;0.32;0.32;;;21.40;99.90;;;;;;5064152;28;20597;-83
2022/09/01 08:48:03;;;;;;;0.30;0.30;;;21.60;99.90;;;;;;5058934;28;20039;-83
2022/09/01 08:50:32;;;;;;;0.30;0.30;;;21.00;99.90;;;;;;5056913;28;20155;-83
2022/09/01 08:53:20;;;;;;;0.40;0.40;;;20.70;99.90;;;;;;5067614;28;20478;-81
2022/09/01 08:55:50;;;;;;;0.40;0.40;;;21.30;99.90;;;;;;5062834;28;20135;-82
2022/09/01 08:58:17;;;;;;;0.30;0.30;;;21.20;99.90;;;;;;5062120;28;20063;-81
2022/09/01 09:00:52;;;;;;;0.30;0.30;;;21.30;99.90;;;;;;5063549;28;20589;-81
2022/09/01 09:03:42;;;;;;;0.30;0.30;;;21.90;99.90;;;;;;5083396;28;20047;-81
2022/09/01 09:06:23;;;;;;;0.30;0.30;;;21.70;99.90;;;;;;5060129;28;20753;-80
2022/09/01 09:09:06;;;;;;;0.40;0.40;;;22.10;99.90;;;;;;5065704;28;20044;-81
2022/09/01 09:11:41;;;;;;;0.30;0.30;;;22.20;99.90;;;;;;5059007;28;20992;-81
2022/09/01 09:14:33;;;;;;;0.32;0.32;;;21.50;99.90;;;;;;5067933;28;20463;-83
2022/09/01 09:17:24;;;;;;;0.38;0.38;;;21.90;99.90;;;;;;5070539;28;20044;-80
2022/09/01 09:19:51;;;;;;;0.40;0.40;;;21.70;99.90;;;;;;5086917;28;20810;-81
2022/09/01 09:22:18;;;;;;;0.30;0.30;;;22.00;99.90;;;;;;5067401;28;20048;-79
2022/09/01 09:24:54;;;;;;;0.30;0.30;;;21.80;99.90;;;;;;5087047;28;20762;-80
2022/09/01 09:27:24;;;;;;;0.30;0.30;;;22.30;99.90;;;;;;5069427;28;20051;-79
2022/09/01 09:29:52;;;;;;;0.30;0.30;;;21.90;99.90;;;;;;5082891;28;20043;-81
2022/09/01 09:32:20;;;;;;;0.30;0.30;;;21.90;99.90;;;;;;5087830;28;20842;-83
2022/09/01 09:34:47;;;;;;;0.40;0.40;;;21.60;99.90;;;;;;5070166;28;20154;-80
2022/09/01 09:37:43;;;;;;;0.30;0.30;;;22.10;99.90;;;;;;5084296;28;20124;-80
2022/09/01 09:40:15;;;;;;;0.30;0.30;;;22.40;99.90;;;;;;5071347;28;20063;-82
2022/09/01 09:42:53;;;;;;;0.32;0.32;;;22.50;99.90;;;;;;5064589;28;20221;-81
2022/09/01 09:45:26;;;;;;;0.30;0.30;;;22.30;99.90;;;;;;5070532;28;20048;-80
2022/09/01 09:47:54;;;;;;;0.30;0.30;;;22.30;99.90;;;;;;5071424;28;20066;-80
2022/09/01 09:50:42;;;;;;;0.32;0.32;;;22.40;99.90;;;;;;5081319;28;20130;-82
2022/09/01 09:53:27;;;;;;;0.40;0.40;;;22.70;99.90;;;;;;5065807;28;20340;-79
2022/09/01 09:56:03;;;;;;;0.30;0.30;;;22.90;99.90;;;;;;5080722;28;20626;-80
2022/09/01 09:58:41;;;;;;;0.30;0.30;;;22.60;99.90;;;;;;5038475;28;20868;-81
2022/09/01 10:01:16;;;;;;;0.30;0.30;;;22.30;99.90;;;;;;5078098;28;20474;-82
2022/09/01 10:03:55;;;;;;;0.30;0.30;;;22.80;99.90;;;;;;5082709;28;20059;-79
2022/09/01 10:06:40;;;;;;;0.40;0.40;;;22.90;99.90;;;;;;5083770;28;20051;-84
2022/09/01 10:09:26;;;;;;;0.30;0.30;;;23.50;99.90;;;;;;5083929;28;20039;-80
2022/09/01 10:11:57;;;;;;;0.30;0.30;;;23.30;99.90;;;;;;5068735;28;20717;-81
2022/09/01 10:15:06;;;;;;;0.30;0.30;;;22.50;99.90;;;;;;5063269;28;20850;-81
2022/09/01 10:17:38;;;;;;;0.30;0.30;;;23.00;99.90;;;;;;5057732;28;20603;-80
2022/09/01 10:20:13;;;;;;;0.30;0.30;;;23.00;99.90;;;;;;5066138;28;20047;-81
2022/09/01 10:22:40;;;;;;;0.30;0.30;;;23.30;99.90;;;;;;5063385;28;20511;-85
2022/09/01 10:25:10;;;;;;;0.30;0.30;;;23.30;99.40;;;;;;5065688;28;20050;-80
2022/09/01 10:27:40;;;;;;;0.35;0.35;;;22.90;99.90;;;;;;5082565;28;21093;-80
2022/09/01 10:30:13;;;;;;;0.30;0.30;;;22.90;99.90;;;;;;5045709;28;20043;-79
2022/09/01 10:32:49;;;;;;;0.30;0.30;;;23.50;99.80;;;;;;5081348;28;20039;-80
2022/09/01 10:35:30;;;;;;;0.40;0.40;;;22.80;98.90;;;;;;5063009;28;20131;-81
2022/09/01 10:38:02;;;;;;;0.30;0.30;;;23.00;98.80;;;;;;5079907;28;20047;-81
2022/09/01 10:40:28;;;;;;;0.40;0.40;;;22.90;98.90;;;;;;5080042;28;20050;-82
2022/09/01 10:42:56;;;;;;;0.30;0.30;;;22.40;99.40;;;;;;5071839;28;20113;-82
2022/09/01 10:45:34;;;;;;;0.40;0.40;;;23.00;98.60;;;;;;5067367;28;21761;-83
2022/09/01 10:48:28;;;;;;;0.30;0.30;;;22.70;99.40;;;;;;5068526;28;20842;-80
2022/09/01 10:51:12;;;;;;;0.40;0.40;;;23.80;99.90;;;;;;5084975;28;20507;-83
2022/09/01 10:53:44;;;;;;;0.40;0.40;;;23.00;98.30;;;;;;5087927;28;20284;-81
2022/09/01 10:56:34;;;;;;;0.40;0.40;;;23.60;99.80;;;;;;5067338;28;20057;-82
2022/09/01 10:59:23;;;;;;;0.30;0.30;;;23.80;98.80;;;;;;5083647;28;20047;-81
2022/09/01 11:01:48;;;;;;;0.40;0.40;;;24.50;97.90;;;;;;5088015;28;20236;-81
2022/09/01 11:04:28;;;;;;;0.30;0.30;;;23.80;98.90;;;;;;5072202;28;20039;-83
2022/09/01 11:07:00;;;;;;;0.30;0.30;;;24.30;97.40;;;;;;5087947;28;20044;-80
2022/09/01 11:09:40;;;;;;;0.38;0.38;;;23.30;97.90;;;;;;5061955;28;20051;-85
2022/09/01 11:12:31;;;;;;;0.30;0.30;;;23.60;98.30;;;;;;5048716;28;20083;-82
2022/09/01 11:15:04;;;;;;;0.30;0.30;;;23.70;97.70;;;;;;5088122;28;20058;-81
2022/09/01 11:17:35;;;;;;;0.30;0.30;;;23.80;97.80;;;;;;5084687;28;20038;-82
2022/09/01 11:20:36;;;;;;;0.30;0.30;;;23.10;98.00;;;;;;5085971;28;20040;-81
2022/09/01 11:23:19;;;;;;;0.30;0.30;;;23.20;97.70;;;;;;5086146;28;20043;-82
2022/09/01 11:25:49;;;;;;;0.30;0.30;;;22.10;97.50;;;;;;5069237;28;20059;-80
2022/09/01 11:28:15;;;;;;;0.30;0.30;;;23.00;98.50;;;;;;5081598;28;20461;-80
2022/09/01 11:30:51;;;;;;;0.30;0.30;;;23.10;98.30;;;;;;5082943;28;20047;-82
2022/09/01 11:33:51;;;;;;;0.30;0.30;;;22.50;97.90;;;;;;5066931;28;20612;-82
2022/09/01 11:36:31;;;;;;;0.32;0.32;;;22.70;97.90;;;;;;5083678;28;20055;-82
2022/09/01 11:39:18;;;;;;;0.30;0.30;;;23.10;98.00;;;;;;5072885;28;20048;-79
2022/09/01 11:42:18;;;;;;;0.30;0.30;;;23.60;97.30;;;;;;5085003;28;20051;-82
2022/09/01 11:44:52;;;;;;;0.30;0.30;;;23.20;96.70;;;;;;5065885;28;20120;-83
2022/09/01 11:47:25;;;;;;;0.30;0.30;;;23.80;97.10;;;;;;5084004;28;21158;-82
2022/09/01 11:50:04;;;;;;;0.30;0.30;;;23.50;96.20;;;;;;5063998;28;20055;-83
2022/09/01 11:52:34;;;;;;;0.30;0.30;;;23.70;95.90;;;;;;5084577;28;20105;-80
2022/09/01 11:55:01;;;;;;;0.40;0.40;;;23.30;96.10;;;;;;5085453;28;20105;-82
2022/09/01 11:57:33;;;;;;;0.30;0.30;;;23.30;96.50;;;;;;5066135;28;20067;-82
2022/09/01 12:00:02;;;;;;;0.30;0.30;;;24.40;96.80;;;;;;5087304;28;20044;-82
2022/09/01 12:02:32;;;;;;;0.30;0.30;;;23.90;95.80;;;;;;5082983;28;20055;-81
2022/09/01 12:05:00;;;;;;;0.30;0.30;;;23.10;95.30;;;;;;5066896;28;20051;-80
2022/09/01 12:07:26;;;;;;;0.30;0.30;;;22.40;95.90;;;;;;5084834;28;20430;-83
2022/09/01 12:09:52;;;;;;;0.30;0.30;;;22.70;96.40;;;;;;5065258;28;20046;-85
2022/09/01 12:12:34;;;;;;;0.30;0.30;;;22.30;96.30;;;;;;5049964;28;20038;-84
2022/09/01 12:15:22;;;;;;;0.30;0.30;;;22.60;96.70;;;;;;5085556;28;20051;-79
2022/09/01 12:17:48;;;;;;;0.32;0.32;;;23.50;96.20;;;;;;5083637;28;20112;-78
2022/09/01 12:20:34;;;;;;;0.30;0.30;;;23.50;94.00;;;;;;5065021;28;20044;-81
2022/09/01 12:23:09;;;;;;;0.30;0.30;;;24.10;94.30;;;;;;5080267;28;20047;-83
2022/09/01 12:25:35;;;;;;;0.30;0.30;;;24.60;93.80;;;;;;5066421;28;20044;-81
2022/09/01 12:28:04;;;;;;;0.30;0.30;;;24.90;95.10;;;;;;5085736;28;20042;-84
2022/09/01 12:30:34;;;;;;;0.30;0.30;;;24.90;94.40;;;;;;5067842;28;20048;-83
2022/09/01 12:33:04;;;;;;;0.30;0.30;;;24.10;94.30;;;;;;5084605;28;20553;-83
2022/09/01 12:35:30;;;;;;;0.30;0.30;;;23.50;94.40;;;;;;5103427;27;20050;-81
2022/09/01 12:38:17;;;;;;;0.40;0.40;;;23.20;94.70;;;;;;5086794;28;20047;-82
2022/09/01 12:40:44;;;;;;;0.32;0.32;;;23.90;94.80;;;;;;5089278;27;20046;-82
2022/09/01 12:43:11;;;;;;;0.35;0.35;;;23.30;93.80;;;;;;5113682;27;20074;-81
2022/09/01 12:45:46;;;;;;;0.40;0.40;;;23.20;93.90;;;;;;5094232;27;20121;-81
2022/09/01 12:48:32;;;;;;;0.30;0.30;;;22.80;94.00;;;;;;5111376;27;20983;-80
2022/09/01 12:51:01;;;;;;;0.30;0.30;;;22.80;94.80;;;;;;5110074;27;20455;-82
2022/09/01 12:53:30;;;;;;;0.40;0.40;;;23.40;95.20;;;;;;5110254;27;20131;-83
2022/09/01 12:56:03;;;;;;;0.30;0.30;;;23.90;94.60;;;;;;5108776;27;20592;-83
2022/09/01 12:58:30;;;;;;;0.33;0.33;;;24.20;94.30;;;;;;5109946;27;20050;-81
2022/09/01 13:01:06;;;;;;;0.30;0.30;;;24.80;94.30;;;;;;5105407;27;20307;-81
2022/09/01 13:03:33;;;;;;;0.40;0.40;;;24.60;93.40;;;;;;5107295;27;20051;-80
2022/09/01 13:06:01;;;;;;;0.40;0.40;;;24.50;92.90;;;;;;5110157;27;20174;-79
2022/09/01 13:08:31;;;;;;;0.30;0.30;;;24.70;93.20;;;;;;5088058;27;20054;-79
2022/09/01 13:11:07;;;;;;;0.30;0.30;;;24.50;92.30;;;;;;5106201;27;20031;-83
2022/09/01 13:13:36;;;;;;;0.32;0.32;;;24.70;92.30;;;;;;5108643;27;20066;-82